Time;durP1;ratioP1;P1;durP2;ratioP2;P2;SDS_P1;SDS_P2;PMS_P1;PMS_P2;Temp;Humidity;BMP_temperature;BMP_pressure;BME280_temperature;BME280_humidity;BME280_pressure;Samples;Min_cycle;Max_cycle;Signal;HPM_P1;HPM_P2
2023/05/22 00:00:03;;;;;;;0.40;0.40;;;19.20;90.90;;;;;;6243674;23;20224;-89
2023/05/22 00:02:41;;;;;;;0.57;0.57;;;19.20;91.00;;;;;;6243256;23;20155;-88
2023/05/22 00:05:11;;;;;;;0.30;0.30;;;19.20;91.00;;;;;;6243140;23;20178;-89
2023/05/22 00:07:42;;;;;;;0.97;0.57;;;19.20;91.00;;;;;;6243142;23;20238;-89
2023/05/22 00:10:13;;;;;;;0.80;0.67;;;19.20;91.00;;;;;;6240448;23;20166;-87
2023/05/22 00:12:41;;;;;;;0.30;0.30;;;19.20;91.00;;;;;;6241953;23;20642;-88
2023/05/22 00:15:12;;;;;;;0.73;0.70;;;19.20;91.10;;;;;;6243168;23;20682;-88
2023/05/22 00:17:41;;;;;;;0.60;0.60;;;19.20;91.00;;;;;;6242674;23;20616;-88
2023/05/22 00:20:10;;;;;;;1.33;1.00;;;19.20;91.00;;;;;;6243483;23;20170;-86
2023/05/22 00:22:39;;;;;;;1.10;0.70;;;19.10;91.10;;;;;;6217952;23;20174;-87
2023/05/22 00:25:10;;;;;;;1.20;0.30;;;19.10;91.10;;;;;;6243703;23;20190;-89
2023/05/22 00:27:40;;;;;;;0.33;0.33;;;19.10;91.10;;;;;;6244285;23;20237;-88
2023/05/22 00:30:10;;;;;;;0.40;0.40;;;19.10;91.10;;;;;;6242430;23;20170;-86
2023/05/22 00:32:39;;;;;;;0.60;0.60;;;19.10;91.10;;;;;;6243096;23;20269;-87
2023/05/22 00:35:09;;;;;;;0.73;0.60;;;19.10;91.10;;;;;;6244894;23;20212;-87
2023/05/22 00:37:38;;;;;;;1.03;0.70;;;19.10;91.10;;;;;;6242934;23;20241;-87
2023/05/22 00:40:08;;;;;;;0.20;0.20;;;19.10;91.10;;;;;;6244991;23;20170;-87
2023/05/22 00:42:37;;;;;;;0.77;0.50;;;19.10;91.00;;;;;;6244819;23;20167;-87
2023/05/22 00:45:09;;;;;;;0.67;0.67;;;19.10;91.00;;;;;;6244245;23;20194;-87
2023/05/22 00:47:38;;;;;;;0.33;0.33;;;19.10;91.00;;;;;;6244700;23;20159;-88
2023/05/22 00:50:09;;;;;;;0.27;0.27;;;19.10;91.00;;;;;;6219216;23;20177;-88
2023/05/22 00:52:41;;;;;;;0.83;0.77;;;19.10;91.00;;;;;;6242804;23;21039;-87
2023/05/22 00:55:12;;;;;;;0.77;0.60;;;19.10;91.10;;;;;;6241921;23;20710;-87
2023/05/22 00:57:41;;;;;;;0.60;0.60;;;19.10;91.10;;;;;;6242736;23;20508;-87
2023/05/22 01:00:15;;;;;;;0.37;0.37;;;19.10;91.10;;;;;;6243644;23;20671;-89
2023/05/22 01:02:44;;;;;;;0.30;0.30;;;19.10;91.00;;;;;;6244288;23;20202;-88
2023/05/22 01:05:16;;;;;;;0.57;0.43;;;19.10;90.90;;;;;;6243150;23;20198;-87
2023/05/22 01:07:46;;;;;;;0.67;0.43;;;19.10;90.80;;;;;;6217225;23;20313;-88
2023/05/22 01:10:14;;;;;;;0.60;0.60;;;19.10;90.80;;;;;;6242678;23;20477;-88
2023/05/22 01:12:49;;;;;;;0.30;0.30;;;19.10;90.70;;;;;;6242735;23;20171;-88
2023/05/22 01:15:26;;;;;;;1.20;0.53;;;19.10;90.70;;;;;;6243574;23;20178;-87
2023/05/22 01:18:04;;;;;;;0.57;0.50;;;19.10;90.70;;;;;;6244345;23;20222;-88
2023/05/22 01:20:38;;;;;;;0.30;0.30;;;19.10;90.60;;;;;;6243182;23;20169;-88
2023/05/22 01:23:29;;;;;;;0.93;0.40;;;19.10;90.60;;;;;;6242737;23;20376;-88
2023/05/22 01:26:17;;;;;;;0.40;0.40;;;19.10;90.60;;;;;;6243879;23;20189;-87
2023/05/22 01:29:10;;;;;;;0.30;0.30;;;19.10;90.50;;;;;;6192188;23;20167;-89
2023/05/22 01:31:43;;;;;;;0.50;0.40;;;19.10;90.50;;;;;;6239756;23;20635;-90
2023/05/22 01:34:14;;;;;;;0.50;0.43;;;19.10;90.50;;;;;;6241907;23;20639;-87
2023/05/22 01:36:46;;;;;;;0.40;0.40;;;19.10;90.50;;;;;;6242628;23;20171;-90
2023/05/22 01:39:16;;;;;;;0.43;0.43;;;19.10;90.50;;;;;;6243365;23;20166;-89
2023/05/22 01:41:45;;;;;;;1.13;0.77;;;19.10;90.50;;;;;;6241198;23;20620;-88
2023/05/22 01:44:14;;;;;;;4.50;0.60;;;19.10;90.90;;;;;;6241098;23;20264;-89
2023/05/22 01:46:44;;;;;;;0.43;0.43;;;19.10;90.60;;;;;;6241240;23;20195;-88
2023/05/22 01:49:13;;;;;;;0.73;0.50;;;19.00;90.60;;;;;;6243478;23;20173;-87
2023/05/22 01:51:52;;;;;;;0.43;0.40;;;19.10;90.50;;;;;;6216514;23;20173;-87
2023/05/22 01:54:30;;;;;;;1.13;0.53;;;19.10;90.50;;;;;;6243153;23;20209;-87
2023/05/22 01:57:05;;;;;;;0.30;0.30;;;19.10;90.50;;;;;;6243887;23;20174;-87
2023/05/22 01:59:53;;;;;;;0.97;0.77;;;19.10;90.50;;;;;;6242848;23;20154;-87
2023/05/22 02:02:26;;;;;;;0.30;0.30;;;19.10;90.50;;;;;;6243518;23;20163;-87
2023/05/22 02:04:59;;;;;;;0.60;0.57;;;19.10;90.40;;;;;;6243296;23;20170;-88
2023/05/22 02:07:29;;;;;;;0.57;0.57;;;19.10;90.40;;;;;;6241626;23;20315;-88
2023/05/22 02:09:59;;;;;;;0.47;0.47;;;19.10;90.40;;;;;;6243070;23;20175;-88
2023/05/22 02:12:29;;;;;;;0.73;0.63;;;19.10;90.40;;;;;;6242430;23;20549;-90
2023/05/22 02:14:57;;;;;;;1.60;1.13;;;19.10;90.40;;;;;;6242023;23;20174;-88
2023/05/22 02:17:28;;;;;;;0.67;0.67;;;19.10;90.50;;;;;;6241581;23;20167;-88
2023/05/22 02:19:57;;;;;;;0.40;0.40;;;19.10;90.60;;;;;;6242831;23;20237;-87
2023/05/22 02:22:26;;;;;;;1.07;0.97;;;19.10;90.60;;;;;;6241916;23;20174;-88
2023/05/22 02:24:54;;;;;;;1.53;0.97;;;19.00;90.70;;;;;;6242019;23;20231;-88
2023/05/22 02:27:23;;;;;;;0.67;0.67;;;19.10;90.70;;;;;;6240419;23;20655;-87
2023/05/22 02:29:52;;;;;;;0.73;0.63;;;19.10;90.60;;;;;;6242638;23;20188;-87
2023/05/22 02:32:20;;;;;;;0.93;0.67;;;19.00;90.60;;;;;;6242671;23;20530;-85
2023/05/22 02:34:51;;;;;;;0.53;0.53;;;19.10;90.60;;;;;;6216636;23;20166;-87
2023/05/22 02:37:22;;;;;;;0.80;0.70;;;19.10;90.50;;;;;;6242878;23;20162;-87
2023/05/22 02:39:50;;;;;;;0.43;0.43;;;19.10;90.50;;;;;;6216872;23;20501;-87
2023/05/22 02:42:19;;;;;;;0.90;0.70;;;19.10;90.50;;;;;;6217491;23;20505;-85
2023/05/22 02:44:47;;;;;;;0.33;0.30;;;19.00;90.50;;;;;;6242140;23;20170;-86
2023/05/22 02:47:16;;;;;;;1.83;1.10;;;19.10;90.50;;;;;;6241459;23;20648;-86
2023/05/22 02:49:45;;;;;;;1.53;1.23;;;19.10;90.50;;;;;;6242973;23;20176;-87
2023/05/22 02:52:15;;;;;;;3.30;0.73;;;19.10;90.60;;;;;;6243670;23;20623;-86
2023/05/22 02:54:44;;;;;;;1.20;1.03;;;19.10;90.50;;;;;;6240205;23;20166;-86
2023/05/22 02:57:13;;;;;;;1.27;0.70;;;19.10;90.50;;;;;;6240948;23;20166;-88
2023/05/22 02:59:43;;;;;;;1.13;0.70;;;19.10;90.40;;;;;;6240324;23;20166;-88
2023/05/22 03:02:13;;;;;;;1.87;0.80;;;19.10;90.40;;;;;;6241643;23;20170;-88
2023/05/22 03:04:42;;;;;;;1.63;0.90;;;19.10;90.40;;;;;;6242892;23;20185;-87
2023/05/22 03:07:11;;;;;;;2.00;1.20;;;19.10;90.50;;;;;;6190485;23;20194;-87
2023/05/22 03:09:41;;;;;;;0.70;0.70;;;19.10;90.50;;;;;;6240757;23;20249;-86
2023/05/22 03:12:10;;;;;;;0.50;0.50;;;19.10;90.50;;;;;;6241604;23;20170;-88
2023/05/22 03:14:39;;;;;;;1.27;0.73;;;19.10;90.50;;;;;;6241059;23;20249;-86
2023/05/22 03:17:07;;;;;;;1.77;0.83;;;19.10;90.50;;;;;;6242936;23;20169;-88
2023/05/22 03:19:36;;;;;;;0.50;0.50;;;19.10;90.50;;;;;;6243334;23;20171;-87
2023/05/22 03:22:05;;;;;;;2.67;0.40;;;19.20;90.60;;;;;;6244879;23;20173;-89
2023/05/22 03:24:34;;;;;;;1.03;0.80;;;19.20;90.50;;;;;;6242722;23;20201;-86
2023/05/22 03:27:04;;;;;;;3.73;1.30;;;19.20;90.50;;;;;;6216441;23;20217;-87
2023/05/22 03:29:33;;;;;;;1.10;1.00;;;19.10;90.50;;;;;;6242337;23;20163;-87
2023/05/22 03:32:03;;;;;;;0.97;0.97;;;19.20;90.50;;;;;;6243092;23;20232;-89
2023/05/22 03:34:32;;;;;;;1.13;1.00;;;19.20;90.50;;;;;;6242280;23;20663;-87
2023/05/22 03:37:00;;;;;;;1.80;1.30;;;19.20;90.40;;;;;;6243810;23;20185;-88
2023/05/22 03:39:29;;;;;;;4.63;1.80;;;19.20;90.50;;;;;;6243588;23;20254;-85
2023/05/22 03:41:58;;;;;;;2.87;1.10;;;19.20;90.40;;;;;;6243354;23;20480;-88
2023/05/22 03:44:28;;;;;;;1.17;0.60;;;19.30;90.40;;;;;;6243678;23;20534;-87
2023/05/22 03:46:57;;;;;;;0.87;0.83;;;19.30;90.40;;;;;;6215985;23;20651;-88
2023/05/22 03:49:25;;;;;;;1.07;0.83;;;19.20;90.50;;;;;;6216591;23;20177;-88
2023/05/22 03:51:54;;;;;;;0.80;0.70;;;19.30;90.60;;;;;;6242653;23;20254;-88
2023/05/22 03:54:22;;;;;;;3.30;1.57;;;19.30;90.50;;;;;;6216162;23;20181;-86
2023/05/22 03:56:51;;;;;;;2.40;1.13;;;19.30;90.50;;;;;;6243029;23;20671;-87
2023/05/22 03:59:20;;;;;;;1.13;1.03;;;19.30;90.50;;;;;;6239938;23;20274;-88
2023/05/22 04:01:50;;;;;;;0.90;0.80;;;19.40;90.60;;;;;;6242180;23;20167;-87
2023/05/22 04:04:19;;;;;;;0.70;0.70;;;19.30;90.60;;;;;;6214090;23;20158;-87
2023/05/22 04:06:48;;;;;;;1.73;1.00;;;19.40;90.50;;;;;;6242931;23;20216;-86
2023/05/22 04:09:17;;;;;;;1.80;1.10;;;19.40;90.50;;;;;;6242872;23;20236;-87
2023/05/22 04:11:47;;;;;;;1.17;0.90;;;19.50;90.50;;;;;;6242101;23;20181;-86
2023/05/22 04:14:15;;;;;;;3.83;0.80;;;19.50;90.40;;;;;;6241663;23;20571;-87
2023/05/22 04:16:44;;;;;;;2.63;1.50;;;19.50;90.40;;;;;;6243401;23;20171;-88
2023/05/22 04:19:14;;;;;;;1.57;1.10;;;19.60;90.40;;;;;;6240990;23;20385;-87
2023/05/22 04:21:42;;;;;;;1.63;1.10;;;19.60;90.70;;;;;;6242268;23;20554;-88
2023/05/22 04:24:11;;;;;;;2.13;1.20;;;19.60;90.70;;;;;;6242911;23;20167;-86
2023/05/22 04:26:40;;;;;;;1.50;1.23;;;19.60;90.70;;;;;;6240729;23;20178;-87
2023/05/22 04:29:13;;;;;;;1.30;0.73;;;19.70;90.60;;;;;;6240591;23;20166;-86
2023/05/22 04:31:42;;;;;;;1.43;0.97;;;19.70;90.60;;;;;;6239188;23;20170;-87
2023/05/22 04:34:11;;;;;;;2.17;1.10;;;19.80;90.50;;;;;;6242423;23;20229;-89
2023/05/22 04:36:43;;;;;;;4.67;1.00;;;19.80;90.50;;;;;;6191544;23;20177;-88
2023/05/22 04:39:13;;;;;;;1.07;0.80;;;19.90;90.50;;;;;;6242009;23;20166;-87
2023/05/22 04:41:42;;;;;;;1.57;1.10;;;20.00;90.40;;;;;;6241966;23;20201;-88
2023/05/22 04:44:10;;;;;;;1.03;0.93;;;20.00;90.40;;;;;;6240401;23;20217;-87
2023/05/22 04:46:39;;;;;;;1.53;1.10;;;20.10;90.40;;;;;;6239134;23;20755;-88
2023/05/22 04:49:08;;;;;;;1.55;1.20;;;20.10;90.30;;;;;;6215310;23;20198;-89
2023/05/22 04:51:36;;;;;;;1.63;1.35;;;20.30;90.30;;;;;;6241700;23;20167;-89
2023/05/22 04:54:06;;;;;;;1.63;1.20;;;20.30;90.40;;;;;;6242786;23;20171;-87
2023/05/22 04:56:35;;;;;;;2.35;1.27;;;20.40;90.10;;;;;;6242547;23;20277;-89
2023/05/22 04:59:07;;;;;;;2.67;1.17;;;20.40;89.30;;;;;;6244240;23;20190;-89
2023/05/22 05:01:37;;;;;;;2.20;0.93;;;20.50;88.60;;;;;;6241785;23;20159;-88
2023/05/22 05:04:05;;;;;;;1.83;1.30;;;20.60;88.40;;;;;;6242572;23;20257;-87
2023/05/22 05:06:34;;;;;;;2.17;1.13;;;20.60;87.00;;;;;;6243978;23;20170;-91
2023/05/22 05:09:03;;;;;;;2.58;1.48;;;20.60;86.70;;;;;;6244263;23;20195;-88
2023/05/22 05:11:33;;;;;;;1.63;0.70;;;20.60;86.90;;;;;;6240678;23;20237;-88
2023/05/22 05:14:02;;;;;;;0.80;0.63;;;20.70;87.00;;;;;;6243785;23;20171;-91
2023/05/22 05:16:30;;;;;;;1.85;0.82;;;20.70;85.20;;;;;;6217670;23;20273;-89
2023/05/22 05:18:59;;;;;;;0.98;0.82;;;20.80;85.20;;;;;;6242329;23;20185;-87
2023/05/22 05:21:27;;;;;;;2.95;1.35;;;20.80;84.10;;;;;;6244079;23;20175;-91
2023/05/22 05:23:56;;;;;;;5.80;1.48;;;20.90;84.20;;;;;;6243097;23;20167;-83
2023/05/22 05:26:25;;;;;;;8.88;0.90;;;20.90;84.10;;;;;;6213273;23;20190;-87
2023/05/22 05:28:56;;;;;;;2.05;0.90;;;20.90;83.50;;;;;;6241751;23;20197;-85
2023/05/22 05:31:25;;;;;;;5.80;0.80;;;20.90;83.00;;;;;;6240843;23;20162;-86
2023/05/22 05:33:56;;;;;;;6.40;1.92;;;21.00;83.30;;;;;;6243024;23;20166;-85
2023/05/22 05:36:25;;;;;;;1.33;0.98;;;21.00;82.70;;;;;;6241774;23;20194;-87
2023/05/22 05:38:55;;;;;;;0.70;0.70;;;21.10;83.30;;;;;;6242147;23;20537;-86
2023/05/22 05:41:24;;;;;;;0.90;0.90;;;21.10;82.90;;;;;;6216235;23;20170;-87
2023/05/22 05:43:52;;;;;;;1.25;0.70;;;21.10;82.30;;;;;;6242704;23;20174;-84
2023/05/22 05:46:23;;;;;;;0.90;0.70;;;21.20;82.20;;;;;;6240049;23;20245;-85
2023/05/22 05:48:53;;;;;;;1.42;0.82;;;21.20;82.20;;;;;;6242173;23;20239;-85
2023/05/22 05:51:21;;;;;;;1.77;0.90;;;21.30;82.10;;;;;;6240646;23;20167;-84
2023/05/22 05:53:50;;;;;;;1.60;0.95;;;21.30;82.30;;;;;;6216409;23;20162;-84
2023/05/22 05:56:20;;;;;;;1.65;0.95;;;21.30;78.80;;;;;;6213672;23;20277;-83
2023/05/22 05:58:48;;;;;;;0.60;0.55;;;21.40;78.10;;;;;;6240384;23;20170;-83
2023/05/22 06:01:17;;;;;;;0.95;0.93;;;21.40;77.10;;;;;;6240978;23;20213;-86
2023/05/22 06:03:47;;;;;;;4.55;0.70;;;21.40;77.20;;;;;;6242312;23;20170;-86
2023/05/22 06:06:16;;;;;;;1.42;0.77;;;21.50;77.70;;;;;;6241169;23;20177;-85
2023/05/22 06:08:44;;;;;;;2.00;0.88;;;21.60;77.10;;;;;;6240701;23;20229;-85
2023/05/22 06:11:12;;;;;;;1.95;0.77;;;21.60;75.80;;;;;;6242411;23;20166;-84
2023/05/22 06:13:41;;;;;;;2.50;1.52;;;21.70;75.70;;;;;;6240388;23;20167;-81
2023/05/22 06:16:09;;;;;;;0.65;0.52;;;21.90;76.20;;;;;;6237016;23;20193;-83
2023/05/22 06:18:38;;;;;;;1.75;0.90;;;22.00;74.90;;;;;;6242565;23;20174;-82
2023/05/22 06:21:07;;;;;;;3.08;1.40;;;22.10;75.50;;;;;;6241166;23;20167;-84
2023/05/22 06:23:36;;;;;;;0.90;0.55;;;22.20;75.00;;;;;;6237897;23;20163;-84
2023/05/22 06:26:05;;;;;;;0.70;0.70;;;22.30;74.30;;;;;;6238199;23;20172;-83
2023/05/22 06:28:33;;;;;;;1.23;0.95;;;22.40;75.10;;;;;;6241180;23;20186;-83
2023/05/22 06:31:02;;;;;;;1.40;0.60;;;22.40;75.00;;;;;;6241111;23;20167;-82
2023/05/22 06:33:31;;;;;;;1.13;0.50;;;22.50;74.30;;;;;;6213583;23;20195;-81
2023/05/22 06:36:00;;;;;;;2.22;1.20;;;22.60;73.70;;;;;;6216404;23;20190;-83
2023/05/22 06:38:30;;;;;;;1.77;0.95;;;22.60;73.00;;;;;;6215998;23;20608;-83
2023/05/22 06:40:59;;;;;;;1.45;0.85;;;22.60;72.40;;;;;;6241856;23;20170;-85
2023/05/22 06:43:27;;;;;;;1.23;0.73;;;22.70;72.70;;;;;;6242181;23;20257;-83
2023/05/22 06:45:55;;;;;;;0.95;0.68;;;22.70;72.20;;;;;;6241739;23;20167;-82
2023/05/22 06:48:24;;;;;;;0.63;0.55;;;22.80;72.50;;;;;;6242511;23;20190;-84
2023/05/22 06:50:52;;;;;;;1.88;0.52;;;22.70;69.50;;;;;;6242710;23;20166;-84
2023/05/22 06:53:22;;;;;;;1.75;0.57;;;22.80;69.80;;;;;;6242618;23;20612;-81
2023/05/22 06:55:52;;;;;;;1.50;1.08;;;22.90;69.70;;;;;;6239650;23;20221;-82
2023/05/22 06:58:20;;;;;;;0.90;0.90;;;22.90;69.40;;;;;;6240897;23;20170;-84
2023/05/22 07:00:49;;;;;;;1.05;0.85;;;22.90;69.00;;;;;;6243049;23;20236;-85
2023/05/22 07:03:18;;;;;;;1.35;0.70;;;22.90;68.40;;;;;;6242367;23;20678;-82
2023/05/22 07:05:46;;;;;;;1.42;0.88;;;23.00;69.30;;;;;;6243936;23;20174;-83
2023/05/22 07:08:15;;;;;;;0.50;0.50;;;23.00;68.80;;;;;;6244141;23;20171;-83
2023/05/22 07:10:43;;;;;;;10.30;0.80;;;23.00;68.20;;;;;;6241673;23;20177;-82
2023/05/22 07:13:13;;;;;;;2.20;0.77;;;23.10;69.40;;;;;;6243887;23;20174;-82
2023/05/22 07:15:41;;;;;;;1.67;1.15;;;23.20;69.20;;;;;;6238852;23;20201;-84
2023/05/22 07:18:11;;;;;;;0.30;0.30;;;23.20;68.60;;;;;;6245750;23;20627;-83
2023/05/22 07:20:40;;;;;;;0.60;0.52;;;23.20;68.90;;;;;;6243086;23;20170;-83
2023/05/22 07:23:09;;;;;;;0.93;0.60;;;23.20;69.60;;;;;;6244517;23;20193;-84
2023/05/22 07:25:37;;;;;;;1.17;0.82;;;23.30;69.80;;;;;;6241070;23;20630;-84
2023/05/22 07:28:07;;;;;;;0.57;0.50;;;23.40;70.30;;;;;;6242517;23;20694;-83
2023/05/22 07:30:38;;;;;;;0.85;0.52;;;23.40;69.30;;;;;;6242534;23;20166;-84
2023/05/22 07:33:07;;;;;;;0.70;0.70;;;23.40;69.40;;;;;;6242708;23;20473;-82
2023/05/22 07:35:35;;;;;;;1.10;0.57;;;23.40;68.40;;;;;;6240716;23;20197;-84
2023/05/22 07:38:04;;;;;;;0.65;0.57;;;23.40;68.50;;;;;;6241203;23;20166;-84
2023/05/22 07:40:32;;;;;;;2.03;1.17;;;23.40;68.00;;;;;;6241095;23;20170;-84
2023/05/22 07:43:00;;;;;;;1.65;0.95;;;23.40;69.00;;;;;;6243908;23;20198;-85
2023/05/22 07:45:29;;;;;;;0.52;0.40;;;23.40;69.00;;;;;;6241260;23;20170;-84
2023/05/22 07:48:00;;;;;;;1.08;0.63;;;23.50;69.60;;;;;;6244284;23;20163;-85
2023/05/22 07:50:31;;;;;;;2.80;0.93;;;23.50;68.00;;;;;;6241839;23;20194;-83
2023/05/22 07:53:00;;;;;;;0.90;0.75;;;23.50;68.20;;;;;;6241912;23;20217;-85
2023/05/22 07:55:29;;;;;;;1.10;1.00;;;23.50;67.70;;;;;;6240876;23;20217;-84
2023/05/22 07:57:57;;;;;;;3.25;0.80;;;23.60;67.60;;;;;;6243833;23;20161;-83
2023/05/22 08:00:26;;;;;;;1.45;0.68;;;23.70;67.70;;;;;;6240316;23;20174;-84
2023/05/22 08:02:54;;;;;;;1.92;0.95;;;23.70;68.10;;;;;;6244866;23;20654;-84
2023/05/22 08:05:24;;;;;;;0.85;0.85;;;23.70;68.00;;;;;;6243220;23;20177;-85
2023/05/22 08:07:53;;;;;;;0.70;0.70;;;23.80;67.70;;;;;;6243540;23;20171;-82
2023/05/22 08:10:21;;;;;;;1.65;1.05;;;23.80;66.90;;;;;;6243375;23;20198;-83
2023/05/22 08:12:49;;;;;;;1.33;1.08;;;23.80;67.10;;;;;;6241598;23;20166;-84
2023/05/22 08:15:18;;;;;;;0.82;0.52;;;23.80;67.50;;;;;;6242305;23;20170;-83
2023/05/22 08:17:46;;;;;;;1.10;0.88;;;23.80;67.40;;;;;;6240013;23;20181;-84
2023/05/22 08:20:14;;;;;;;0.65;0.63;;;23.80;67.70;;;;;;6240379;23;20636;-82
2023/05/22 08:22:44;;;;;;;1.85;0.80;;;23.90;68.30;;;;;;6241597;23;20257;-82
2023/05/22 08:25:13;;;;;;;1.00;0.77;;;23.90;68.60;;;;;;6241951;23;20707;-84
2023/05/22 08:27:41;;;;;;;0.90;0.65;;;24.00;68.70;;;;;;6242065;23;20640;-83
2023/05/22 08:30:10;;;;;;;0.40;0.40;;;24.10;69.00;;;;;;6241398;23;20190;-84
2023/05/22 08:32:39;;;;;;;0.80;0.70;;;24.10;69.30;;;;;;6240131;23;20185;-84
2023/05/22 08:35:08;;;;;;;0.80;0.80;;;24.20;69.20;;;;;;6243943;23;20225;-84
2023/05/22 08:37:37;;;;;;;2.95;0.98;;;24.10;68.80;;;;;;6241481;23;20175;-83
2023/05/22 08:40:11;;;;;;;1.55;0.82;;;24.20;68.00;;;;;;6242279;23;20193;-84
2023/05/22 08:42:40;;;;;;;1.17;0.93;;;24.20;68.00;;;;;;6241502;23;20155;-85
2023/05/22 08:45:10;;;;;;;1.33;0.75;;;24.20;68.00;;;;;;6241033;23;20197;-83
2023/05/22 08:47:40;;;;;;;0.50;0.50;;;24.30;67.60;;;;;;6241429;23;20171;-83
2023/05/22 08:50:10;;;;;;;0.98;0.85;;;24.40;67.70;;;;;;6241709;23;20187;-83
2023/05/22 08:52:49;;;;;;;1.55;0.93;;;24.50;67.30;;;;;;6217413;23;20173;-83
2023/05/22 08:55:19;;;;;;;0.63;0.60;;;24.70;67.90;;;;;;6244093;23;20245;-84
2023/05/22 08:57:49;;;;;;;2.03;1.10;;;24.80;67.80;;;;;;6241876;23;20177;-84
2023/05/22 09:00:19;;;;;;;0.60;0.60;;;24.80;67.70;;;;;;6239676;23;20190;-83
2023/05/22 09:02:48;;;;;;;0.73;0.68;;;24.90;67.90;;;;;;6239816;23;20167;-84
2023/05/22 09:05:17;;;;;;;0.82;0.73;;;25.00;68.40;;;;;;6238864;23;20182;-85
2023/05/22 09:07:47;;;;;;;4.38;0.70;;;25.00;65.50;;;;;;6237430;23;20171;-85
2023/05/22 09:10:16;;;;;;;1.70;1.23;;;25.10;65.50;;;;;;6242290;23;20644;-85
2023/05/22 09:13:04;;;;;;;1.95;1.13;;;25.20;66.30;;;;;;6241004;23;20173;-84
2023/05/22 09:15:32;;;;;;;1.17;0.82;;;25.20;66.30;;;;;;6241932;23;20183;-86
2023/05/22 09:18:01;;;;;;;0.50;0.50;;;25.30;66.20;;;;;;6241506;23;20550;-86
2023/05/22 09:20:33;;;;;;;1.27;1.13;;;25.20;64.30;;;;;;6241514;23;20213;-87
2023/05/22 09:23:02;;;;;;;1.88;0.95;;;25.20;64.10;;;;;;6241745;23;20162;-86
2023/05/22 09:25:31;;;;;;;0.85;0.63;;;25.10;64.20;;;;;;6240579;23;20166;-83
2023/05/22 09:28:00;;;;;;;1.58;0.73;;;25.00;64.50;;;;;;6242664;23;20166;-85
2023/05/22 09:30:33;;;;;;;0.60;0.60;;;25.10;64.20;;;;;;6242916;23;20677;-86
2023/05/22 09:33:02;;;;;;;9.57;1.48;;;25.10;64.70;;;;;;6239390;23;20155;-85
2023/05/22 09:35:32;;;;;;;0.98;0.60;;;25.10;65.20;;;;;;6242095;23;20171;-84
2023/05/22 09:38:00;;;;;;;1.40;0.70;;;25.20;65.30;;;;;;6242805;23;20166;-83
2023/05/22 09:40:30;;;;;;;0.50;0.32;;;25.20;65.60;;;;;;6239707;23;20167;-85
2023/05/22 09:42:59;;;;;;;0.68;0.60;;;25.20;65.90;;;;;;6240149;23;20176;-83
2023/05/22 09:45:29;;;;;;;15.75;1.20;;;25.30;66.00;;;;;;6238751;23;20253;-82
2023/05/22 09:47:57;;;;;;;1.00;0.70;;;25.30;65.50;;;;;;6241295;23;20197;-83
2023/05/22 09:50:26;;;;;;;2.25;1.20;;;25.40;65.80;;;;;;6237743;23;20198;-82
2023/05/22 09:52:55;;;;;;;1.92;1.23;;;25.50;65.50;;;;;;6236761;23;20253;-82
2023/05/22 09:55:23;;;;;;;1.98;0.65;;;25.60;65.50;;;;;;6238300;23;20190;-87
2023/05/22 09:57:54;;;;;;;1.50;1.20;;;25.60;64.80;;;;;;6241508;23;20166;-84
2023/05/22 10:00:23;;;;;;;0.80;0.70;;;25.70;63.10;;;;;;6240816;23;20155;-83
2023/05/22 10:03:02;;;;;;;1.65;0.90;;;25.80;63.80;;;;;;6241474;23;20181;-82
2023/05/22 10:05:31;;;;;;;1.52;0.70;;;25.90;64.30;;;;;;6239511;23;20162;-81
2023/05/22 10:08:08;;;;;;;2.58;0.63;;;25.80;62.00;;;;;;6241468;23;20170;-83
2023/05/22 10:10:36;;;;;;;2.15;0.73;;;25.90;62.50;;;;;;6237108;23;20265;-84
2023/05/22 10:13:06;;;;;;;0.55;0.55;;;25.90;60.70;;;;;;6241302;23;20167;-83
2023/05/22 10:15:35;;;;;;;0.98;0.88;;;26.00;61.50;;;;;;6242293;23;20163;-88
2023/05/22 10:18:08;;;;;;;2.67;1.17;;;26.10;62.00;;;;;;6244135;23;20480;-86
2023/05/22 10:20:37;;;;;;;1.00;0.90;;;26.20;62.60;;;;;;6240595;23;20155;-84
2023/05/22 10:23:07;;;;;;;0.40;0.40;;;26.30;63.00;;;;;;6240486;23;20170;-82
2023/05/22 10:25:37;;;;;;;1.20;0.80;;;26.20;62.20;;;;;;6241866;23;20554;-82
2023/05/22 10:28:07;;;;;;;2.05;1.30;;;26.30;61.90;;;;;;6240775;23;20237;-83
2023/05/22 10:30:46;;;;;;;2.58;0.77;;;26.30;61.30;;;;;;6239825;23;20190;-82
2023/05/22 10:33:22;;;;;;;1.08;0.60;;;26.30;61.80;;;;;;6242333;23;20155;-85
2023/05/22 10:35:57;;;;;;;1.65;0.60;;;26.30;61.00;;;;;;6240302;23;20839;-88
2023/05/22 10:38:49;;;;;;;0.93;0.70;;;26.30;59.20;;;;;;6242367;23;20178;-88
2023/05/22 10:41:18;;;;;;;0.38;0.38;;;26.40;59.20;;;;;;6240310;23;20166;-86
2023/05/22 10:43:50;;;;;;;0.88;0.60;;;26.40;58.40;;;;;;6241462;23;20162;-87
2023/05/22 10:46:19;;;;;;;0.60;0.52;;;26.40;59.20;;;;;;6240161;23;20659;-87
2023/05/22 10:48:54;;;;;;;0.63;0.63;;;26.40;59.40;;;;;;6238909;23;20170;-87
2023/05/22 10:51:23;;;;;;;0.57;0.50;;;26.50;59.50;;;;;;6241570;23;20194;-86
2023/05/22 10:53:53;;;;;;;1.95;0.80;;;26.60;59.30;;;;;;6243250;23;20640;-89
2023/05/22 10:56:22;;;;;;;1.15;0.52;;;26.70;59.80;;;;;;6242531;23;20202;-86
2023/05/22 10:59:01;;;;;;;1.35;0.93;;;26.70;58.90;;;;;;6240727;23;20167;-89
2023/05/22 11:01:35;;;;;;;0.85;0.77;;;26.70;57.80;;;;;;6244288;23;20505;-92
2023/05/22 11:04:25;;;;;;;1.52;1.00;;;26.60;57.70;;;;;;6245079;23;20182;-92
2023/05/22 11:10:06;;;;;;;0.60;0.60;;;26.50;58.40;;;;;;6235600;23;20177;-82
2023/05/22 11:12:36;;;;;;;0.80;0.47;;;26.60;59.00;;;;;;6240649;23;20241;-83
2023/05/22 11:15:06;;;;;;;1.90;0.80;;;26.70;59.40;;;;;;6241316;23;20848;-86
2023/05/22 11:17:40;;;;;;;0.65;0.65;;;26.70;59.30;;;;;;6240380;23;20198;-86
2023/05/22 11:20:14;;;;;;;1.02;0.60;;;26.70;59.60;;;;;;6238857;23;20220;-84
2023/05/22 11:22:45;;;;;;;0.50;0.50;;;26.80;59.80;;;;;;6242075;23;20157;-84
2023/05/22 11:25:17;;;;;;;3.33;1.13;;;26.90;59.60;;;;;;6237614;23;20601;-83
2023/05/22 11:27:47;;;;;;;0.73;0.60;;;26.90;58.40;;;;;;6237055;23;20596;-83
2023/05/22 11:30:17;;;;;;;2.53;1.33;;;26.80;58.50;;;;;;6240625;23;20483;-86
2023/05/22 11:32:46;;;;;;;0.65;0.65;;;26.80;58.50;;;;;;6239829;23;20665;-85
2023/05/22 11:35:18;;;;;;;0.50;0.50;;;26.70;58.50;;;;;;6239531;23;20167;-85
2023/05/22 11:37:47;;;;;;;1.08;0.60;;;26.70;58.20;;;;;;6242531;23;20224;-85
2023/05/22 11:40:18;;;;;;;1.20;0.98;;;26.70;58.30;;;;;;6243608;23;20170;-86
2023/05/22 11:42:47;;;;;;;0.80;0.60;;;26.70;58.50;;;;;;6241518;23;20576;-84
2023/05/22 11:45:16;;;;;;;1.30;0.77;;;26.80;58.60;;;;;;6242067;23;20253;-83
2023/05/22 11:47:45;;;;;;;0.88;0.82;;;26.90;59.20;;;;;;6242121;23;21172;-85
2023/05/22 11:50:14;;;;;;;0.60;0.60;;;26.90;58.70;;;;;;6243412;23;20177;-85
2023/05/22 11:52:58;;;;;;;1.90;1.25;;;26.90;57.00;;;;;;6244183;23;20198;-85
2023/05/22 11:55:26;;;;;;;0.77;0.50;;;26.90;56.00;;;;;;6241196;23;20191;-84
2023/05/22 11:57:56;;;;;;;0.60;0.60;;;27.00;57.20;;;;;;6243549;23;20174;-87
2023/05/22 12:00:25;;;;;;;0.65;0.65;;;27.00;57.40;;;;;;6242984;23;20173;-85
2023/05/22 12:02:54;;;;;;;2.47;0.90;;;27.10;57.10;;;;;;6241851;23;20170;-86
2023/05/22 12:05:23;;;;;;;1.10;0.77;;;27.10;56.60;;;;;;6241099;23;20170;-86
2023/05/22 12:07:51;;;;;;;0.68;0.50;;;27.10;55.30;;;;;;6243225;23;20178;-87
2023/05/22 12:10:22;;;;;;;0.55;0.55;;;27.20;55.30;;;;;;6242555;23;20241;-86
2023/05/22 12:12:52;;;;;;;1.23;0.80;;;27.20;55.50;;;;;;6244159;23;20193;-85
2023/05/22 12:15:21;;;;;;;1.58;0.77;;;27.30;55.30;;;;;;6242325;23;20186;-84
2023/05/22 12:17:49;;;;;;;0.90;0.80;;;27.40;55.20;;;;;;6241981;23;20504;-84
2023/05/22 12:20:18;;;;;;;0.80;0.52;;;27.50;55.70;;;;;;6240748;23;20202;-85
2023/05/22 12:22:46;;;;;;;1.23;0.68;;;27.50;54.90;;;;;;6243802;23;20167;-84
2023/05/22 12:25:16;;;;;;;0.40;0.40;;;27.50;54.40;;;;;;6243000;23;20167;-87
2023/05/22 12:27:47;;;;;;;2.60;1.10;;;27.50;53.90;;;;;;6243643;23;20553;-87
2023/05/22 12:30:16;;;;;;;1.10;0.88;;;27.50;54.40;;;;;;6241261;23;20220;-85
2023/05/22 12:32:48;;;;;;;1.05;0.63;;;27.60;54.40;;;;;;6244159;23;20225;-84
2023/05/22 12:35:18;;;;;;;0.65;0.65;;;27.70;55.10;;;;;;6244600;23;20686;-84
2023/05/22 12:37:49;;;;;;;0.65;0.65;;;27.80;55.60;;;;;;6240444;23;20228;-84
2023/05/22 12:40:18;;;;;;;0.30;0.30;;;27.90;55.30;;;;;;6239940;23;20167;-86
2023/05/22 12:42:48;;;;;;;0.88;0.82;;;27.90;55.70;;;;;;6242400;23;20170;-84
2023/05/22 12:45:17;;;;;;;0.40;0.40;;;27.80;54.10;;;;;;6244613;23;20162;-85
2023/05/22 12:47:46;;;;;;;0.35;0.35;;;27.90;54.40;;;;;;6243357;23;20611;-86
2023/05/22 12:50:14;;;;;;;0.38;0.35;;;27.90;54.60;;;;;;6244105;23;20167;-85
2023/05/22 12:52:43;;;;;;;0.98;0.65;;;27.90;54.50;;;;;;6242173;23;20198;-86
2023/05/22 12:55:11;;;;;;;1.23;0.98;;;27.90;53.90;;;;;;6242122;23;20227;-85
2023/05/22 12:57:40;;;;;;;0.63;0.50;;;27.80;53.60;;;;;;6242902;23;20162;-85
2023/05/22 13:00:11;;;;;;;1.33;0.50;;;27.80;53.40;;;;;;6236556;23;20170;-84
2023/05/22 13:02:40;;;;;;;0.30;0.30;;;27.80;53.80;;;;;;6236988;23;20171;-84
2023/05/22 13:05:08;;;;;;;0.88;0.80;;;27.80;53.80;;;;;;6241452;23;20486;-85